createdAt,value
2018-06-21T00:01:10.022Z,60.10
2018-06-21T00:03:14.456Z,60.10
2018-06-21T00:05:19.451Z,60.00
2018-06-21T00:07:24.654Z,60.20
2018-06-21T00:09:29.103Z,60.50
2018-06-21T00:11:33.547Z,60.60
2018-06-21T00:13:38.217Z,60.60
2018-06-21T00:15:42.608Z,60.50
2018-06-21T00:17:47.107Z,60.70
2018-06-21T00:19:51.509Z,60.70
2018-06-21T00:21:56.025Z,60.80
2018-06-21T00:24:00.446Z,60.90
2018-06-21T00:26:05.007Z,60.80
2018-06-21T00:28:09.479Z,60.90
2018-06-21T00:30:14.026Z,60.80
2018-06-21T00:32:18.503Z,60.70
2018-06-21T00:34:23.297Z,60.80
2018-06-21T00:36:27.719Z,60.80
2018-06-21T00:38:32.195Z,61.30
2018-06-21T00:40:36.616Z,60.70
2018-06-21T00:44:45.200Z,60.60
2018-06-21T00:46:49.659Z,60.50
2018-06-21T00:48:54.082Z,60.40
2018-06-21T00:50:58.530Z,60.40
2018-06-21T00:53:02.999Z,60.40
2018-06-21T00:55:07.544Z,60.30
2018-06-21T00:57:11.999Z,60.20
2018-06-21T00:59:16.426Z,60.30
2018-06-21T01:01:22.982Z,60.20
2018-06-21T01:05:39.743Z,60.30
2018-06-21T01:07:47.890Z,60.20
2018-06-21T01:09:54.606Z,60.30
2018-06-21T01:12:02.147Z,60.30
2018-06-21T01:14:08.648Z,60.30
2018-06-21T01:16:15.233Z,60.40
2018-06-21T01:18:22.993Z,60.40
2018-06-21T01:20:29.437Z,60.50
2018-06-21T01:22:36.766Z,60.50
2018-06-21T01:24:44.736Z,60.40
2018-06-21T01:26:51.102Z,60.40
2018-06-21T01:28:56.936Z,60.40
2018-06-21T01:33:10.952Z,60.70
2018-06-21T01:35:17.574Z,60.70
2018-06-21T01:37:24.807Z,60.80
2018-06-21T01:39:30.846Z,60.80
2018-06-21T01:41:39.613Z,60.80
2018-06-21T01:43:47.299Z,60.90
2018-06-21T01:45:55.139Z,60.80
2018-06-21T01:48:01.964Z,60.90
2018-06-21T01:50:09.283Z,60.90
2018-06-21T01:52:15.166Z,60.90
2018-06-21T01:54:23.919Z,60.90
2018-06-21T01:56:32.150Z,61.00
2018-06-21T01:58:39.810Z,61.00
2018-06-21T02:00:44.274Z,61.00
2018-06-21T02:02:49.922Z,60.90
2018-06-21T02:04:56.458Z,60.90
2018-06-21T02:07:02.303Z,61.00
2018-06-21T02:09:11.945Z,61.00
2018-06-21T02:11:19.194Z,61.00
2018-06-21T02:13:25.875Z,61.10
2018-06-21T02:15:32.185Z,61.20
2018-06-21T02:17:39.337Z,61.10
2018-06-21T02:19:43.788Z,61.20
2018-06-21T02:21:48.318Z,61.10
2018-06-21T02:23:52.738Z,61.10
2018-06-21T02:25:57.150Z,61.00
2018-06-21T02:28:01.581Z,61.10
2018-06-21T02:30:06.370Z,61.10
2018-06-21T02:32:10.970Z,61.20
2018-06-21T02:34:15.467Z,61.30
2018-06-21T02:36:19.955Z,61.30
2018-06-21T02:38:24.358Z,61.30
2018-06-21T02:40:28.760Z,61.30
2018-06-21T02:42:33.195Z,61.20
2018-06-21T02:44:37.591Z,61.30
2018-06-21T02:46:42.039Z,61.50
2018-06-21T02:48:46.501Z,61.60
2018-06-21T02:50:50.903Z,61.50
2018-06-21T02:52:55.297Z,61.40
2018-06-21T02:54:59.784Z,61.40
2018-06-21T02:57:04.200Z,61.30
2018-06-21T02:59:08.687Z,61.30
2018-06-21T03:01:13.160Z,61.40
2018-06-21T03:03:17.621Z,61.40
2018-06-21T03:05:22.088Z,61.30
2018-06-21T03:07:26.477Z,61.30
2018-06-21T03:09:30.883Z,61.30
2018-06-21T03:11:35.454Z,61.40
2018-06-21T03:15:43.990Z,61.70
2018-06-21T03:17:48.375Z,61.80
2018-06-21T03:19:52.802Z,61.80
2018-06-21T03:21:57.490Z,61.70
2018-06-21T03:24:02.198Z,61.80
2018-06-21T03:26:06.811Z,61.90
2018-06-21T03:28:11.226Z,62.00
2018-06-21T03:30:15.674Z,62.10
2018-06-21T03:32:20.114Z,62.00
2018-06-21T03:34:24.539Z,62.10
2018-06-21T03:36:28.946Z,62.20
2018-06-21T03:38:33.394Z,62.10
2018-06-21T03:40:38.439Z,62.20
2018-06-21T03:42:42.931Z,62.20
2018-06-21T03:44:47.347Z,62.30
2018-06-21T03:46:51.775Z,62.50
2018-06-21T03:48:56.167Z,62.30
2018-06-21T03:51:00.700Z,62.50
2018-06-21T03:53:06.108Z,62.50
2018-06-21T03:55:10.559Z,62.60
2018-06-21T03:57:14.972Z,62.60
2018-06-21T03:59:19.783Z,63.20
2018-06-21T04:01:24.196Z,63.10
2018-06-21T04:03:32.932Z,63.20
2018-06-21T04:05:38.594Z,63.20
2018-06-21T04:07:44.798Z,63.20
2018-06-21T04:09:52.296Z,63.20
2018-06-21T04:11:57.946Z,63.30
2018-06-21T04:14:02.509Z,63.60
2018-06-21T04:16:10.709Z,63.50
2018-06-21T04:18:22.178Z,63.50
2018-06-21T04:20:30.117Z,63.60
2018-06-21T04:22:34.764Z,64.40
2018-06-21T04:24:39.280Z,63.70
2018-06-21T04:26:43.810Z,63.90
2018-06-21T04:28:48.215Z,64.00
2018-06-21T04:30:52.927Z,64.10
2018-06-21T04:32:57.423Z,64.10
2018-06-21T04:35:01.887Z,64.30
2018-06-21T04:37:07.423Z,64.40
2018-06-21T04:39:11.823Z,64.50
2018-06-21T04:41:16.247Z,64.60
2018-06-21T04:43:22.700Z,64.70
2018-06-21T04:45:27.525Z,64.80
2018-06-21T04:47:31.959Z,65.80
2018-06-21T04:49:36.466Z,65.20
2018-06-21T04:51:40.991Z,65.30
2018-06-21T04:53:45.504Z,65.40
2018-06-21T04:55:49.887Z,65.50
2018-06-21T04:57:54.331Z,65.80
2018-06-21T04:59:59.096Z,65.60
2018-06-21T05:02:03.485Z,65.60
2018-06-21T05:04:08.029Z,65.70
2018-06-21T05:06:12.455Z,66.00
2018-06-21T05:08:16.953Z,66.20
2018-06-21T05:10:21.462Z,66.80
2018-06-21T05:12:25.881Z,66.80
2018-06-21T05:14:30.324Z,66.80
2018-06-21T05:16:34.712Z,67.10
2018-06-21T05:18:39.125Z,67.30
2018-06-21T05:20:46.782Z,67.90
2018-06-21T05:22:53.974Z,68.40
2018-06-21T05:24:58.710Z,69.00
2018-06-21T05:27:03.103Z,70.00
2018-06-21T05:29:07.478Z,70.50
2018-06-21T05:31:11.934Z,70.90
2018-06-21T05:33:16.399Z,72.10
2018-06-21T05:35:20.843Z,71.40
2018-06-21T05:37:25.519Z,71.50
2018-06-21T05:39:33.630Z,71.70
2018-06-21T05:41:43.083Z,71.70
2018-06-21T05:43:50.477Z,71.50
2018-06-21T05:45:54.963Z,71.20
2018-06-21T05:48:00.866Z,71.30
2018-06-21T05:50:06.059Z,71.00
2018-06-21T05:52:10.967Z,71.00
2018-06-21T05:54:15.427Z,71.10
2018-06-21T05:56:19.875Z,70.80
2018-06-21T05:58:24.307Z,70.70
2018-06-21T06:00:29.017Z,70.70
2018-06-21T06:02:33.423Z,70.50
2018-06-21T06:04:37.835Z,70.40
2018-06-21T06:06:42.304Z,70.20
2018-06-21T06:08:46.718Z,70.10
2018-06-21T06:10:51.160Z,70.00
2018-06-21T06:12:55.625Z,69.80
2018-06-21T06:15:00.571Z,69.80
2018-06-21T06:17:05.124Z,69.80
2018-06-21T06:19:09.645Z,69.80
2018-06-21T06:21:16.287Z,70.00
2018-06-21T06:23:25.589Z,70.00
2018-06-21T06:25:31.287Z,69.80
2018-06-21T06:27:35.781Z,70.00
2018-06-21T06:29:40.255Z,69.80
2018-06-21T06:31:44.738Z,70.10
2018-06-21T06:33:49.242Z,69.90
2018-06-21T06:35:55.477Z,70.20
2018-06-21T06:38:01.067Z,70.30
2018-06-21T06:40:05.554Z,70.50
2018-06-21T06:42:10.043Z,70.60
2018-06-21T06:44:14.490Z,70.60
2018-06-21T06:46:18.925Z,70.50
2018-06-21T06:48:23.418Z,70.50
2018-06-21T06:50:27.844Z,70.60
2018-06-21T06:52:33.512Z,70.60
2018-06-21T06:54:38.018Z,70.70
2018-06-21T06:56:42.480Z,70.40
2018-06-21T06:58:47.025Z,70.20
2018-06-21T07:00:51.502Z,70.30
2018-06-21T07:02:56.025Z,70.30
2018-06-21T07:05:00.483Z,70.40
2018-06-21T07:07:05.059Z,70.40
2018-06-21T07:09:10.287Z,70.60
2018-06-21T07:13:19.949Z,70.90
2018-06-21T07:15:25.250Z,70.70
2018-06-21T07:17:29.739Z,70.50
2018-06-21T07:19:34.186Z,70.20
2018-06-21T07:23:44.917Z,69.80
2018-06-21T07:25:49.511Z,69.80
2018-06-21T07:27:53.978Z,69.80
2018-06-21T07:29:58.455Z,69.30
2018-06-21T07:32:02.900Z,69.30
2018-06-21T07:34:08.072Z,69.70
2018-06-21T07:36:12.537Z,69.80
2018-06-21T07:38:17.192Z,70.00
2018-06-21T07:42:26.705Z,69.30
2018-06-21T07:44:31.114Z,69.30
2018-06-21T07:46:36.558Z,69.30
2018-06-21T07:50:45.918Z,69.70
2018-06-21T07:52:50.378Z,69.30
2018-06-21T07:54:55.514Z,69.30
2018-06-21T07:56:59.999Z,68.80
2018-06-21T07:59:04.748Z,68.60
2018-06-21T08:01:09.156Z,68.30
2018-06-21T08:03:13.623Z,68.10
2018-06-21T08:05:18.043Z,69.10
2018-06-21T08:07:25.683Z,68.70
2018-06-21T08:09:30.111Z,69.30
2018-06-21T08:11:34.593Z,69.20
2018-06-21T08:13:39.088Z,69.30
2018-06-21T08:15:43.507Z,69.50
2018-06-21T08:17:47.984Z,69.50
2018-06-21T08:19:52.402Z,69.50
2018-06-21T08:21:56.871Z,69.20
2018-06-21T08:24:03.900Z,69.50
2018-06-21T08:26:10.714Z,69.90
2018-06-21T08:28:16.972Z,69.70
2018-06-21T08:30:24.411Z,68.90
2018-06-21T08:32:30.172Z,68.80
2018-06-21T08:34:38.883Z,69.00
2018-06-21T08:36:52.521Z,68.50
2018-06-21T08:39:06.906Z,68.40
2018-06-21T08:41:13.420Z,68.40
2018-06-21T08:43:17.885Z,67.70
2018-06-21T08:45:22.353Z,67.30
2018-06-21T08:47:31.083Z,66.90
2018-06-21T08:49:35.732Z,66.10
2018-06-21T08:51:40.211Z,64.90
2018-06-21T08:53:44.788Z,65.20
2018-06-21T08:55:49.400Z,65.40
2018-06-21T08:57:53.838Z,65.30
2018-06-21T08:59:58.281Z,65.40
2018-06-21T09:02:02.767Z,65.40
2018-06-21T09:04:10.398Z,64.40
2018-06-21T09:06:15.477Z,64.00
2018-06-21T09:08:19.990Z,63.30
2018-06-21T09:10:24.446Z,62.60
2018-06-21T09:12:33.836Z,62.00
2018-06-21T09:14:38.270Z,60.40
2018-06-21T09:16:42.693Z,59.50
2018-06-21T09:18:47.145Z,59.30
2018-06-21T09:20:51.534Z,60.00
2018-06-21T09:22:56.028Z,59.10
2018-06-21T09:27:05.626Z,60.10
2018-06-21T09:31:14.185Z,60.20
2018-06-21T09:33:18.637Z,59.50
2018-06-21T09:35:26.817Z,59.10
2018-06-21T09:37:36.514Z,59.20
2018-06-21T09:39:46.311Z,59.10
2018-06-21T09:41:56.035Z,59.40
2018-06-21T09:44:05.666Z,59.20
2018-06-21T09:46:15.393Z,58.60
2018-06-21T09:48:24.949Z,58.90
2018-06-21T09:50:29.423Z,57.60
2018-06-21T09:52:33.858Z,57.60
2018-06-21T09:56:42.732Z,57.30
2018-06-21T09:58:47.207Z,57.30
2018-06-21T10:00:56.807Z,57.90
2018-06-21T10:03:01.315Z,56.80
2018-06-21T10:05:05.854Z,56.80
2018-06-21T10:07:10.312Z,56.30
2018-06-21T10:09:14.702Z,55.40
2018-06-21T10:11:19.123Z,55.10
2018-06-21T10:13:23.556Z,55.20
2018-06-21T10:15:27.954Z,54.90
2018-06-21T10:17:32.375Z,54.20
2018-06-21T10:19:38.173Z,53.40
2018-06-21T10:21:43.173Z,53.20
2018-06-21T10:23:47.619Z,53.00
2018-06-21T10:25:52.122Z,52.50
2018-06-21T10:27:56.619Z,51.80
2018-06-21T10:30:01.399Z,51.80
2018-06-21T10:32:05.850Z,51.40
2018-06-21T10:34:10.302Z,49.90
2018-06-21T10:36:14.724Z,49.80
2018-06-21T10:38:19.728Z,49.50
2018-06-21T10:40:24.161Z,49.60
2018-06-21T10:42:28.665Z,50.50
2018-06-21T10:44:33.113Z,50.70
2018-06-21T10:46:37.647Z,50.40
2018-06-21T10:48:42.127Z,50.10
2018-06-21T10:50:47.016Z,50.30
2018-06-21T10:52:51.659Z,50.10
2018-06-21T10:57:06.109Z,49.20
2018-06-21T10:59:10.927Z,48.60
2018-06-21T11:01:15.367Z,49.20
2018-06-21T11:03:20.039Z,48.40
2018-06-21T11:05:24.411Z,48.00
2018-06-21T11:07:28.940Z,47.20
2018-06-21T11:09:33.412Z,46.40
2018-06-21T11:11:37.935Z,46.80
2018-06-21T11:13:42.568Z,46.90
2018-06-21T11:15:47.434Z,46.40
2018-06-21T11:17:51.894Z,46.70
2018-06-21T11:19:56.551Z,44.90
2018-06-21T11:22:01.086Z,44.50
2018-06-21T11:24:06.502Z,43.30
2018-06-21T11:26:10.961Z,44.10
2018-06-21T11:28:15.456Z,42.90
2018-06-21T11:30:19.967Z,42.50
2018-06-21T11:32:24.829Z,42.60
2018-06-21T11:34:29.301Z,42.60
2018-06-21T11:36:34.072Z,43.00
2018-06-21T11:38:38.747Z,41.90
2018-06-21T11:40:43.228Z,41.90
2018-06-21T11:44:52.968Z,40.50
2018-06-21T11:46:58.717Z,40.30
2018-06-21T11:49:04.990Z,40.80
2018-06-21T11:51:10.993Z,39.70
2018-06-21T11:53:15.957Z,39.70
2018-06-21T11:55:20.683Z,39.20
2018-06-21T11:57:25.648Z,39.10
2018-06-21T11:59:30.831Z,38.70
2018-06-21T12:01:36.463Z,38.90
2018-06-21T12:03:41.561Z,38.10
2018-06-21T12:05:46.067Z,38.50
2018-06-21T12:07:50.483Z,38.90
2018-06-21T12:09:54.947Z,37.60
2018-06-21T12:11:59.430Z,38.00
2018-06-21T12:14:04.989Z,38.00
2018-06-21T12:16:09.625Z,38.90
2018-06-21T12:18:14.042Z,38.30
2018-06-21T12:20:18.547Z,38.80
2018-06-21T12:22:23.378Z,38.30
2018-06-21T12:24:27.847Z,38.70
2018-06-21T12:26:33.562Z,38.30
2018-06-21T12:28:38.041Z,37.40
2018-06-21T12:30:42.810Z,35.20
2018-06-21T12:32:47.234Z,36.20
2018-06-21T12:34:51.667Z,36.90
2018-06-21T12:36:56.230Z,38.40
2018-06-21T12:39:00.696Z,37.00
2018-06-21T12:41:05.200Z,36.90
2018-06-21T12:43:09.585Z,37.80
2018-06-21T12:45:14.957Z,37.10
2018-06-21T12:47:19.427Z,36.70
2018-06-21T12:51:28.071Z,35.90
2018-06-21T12:53:32.488Z,35.70
2018-06-21T12:55:36.960Z,34.60
2018-06-21T12:57:41.371Z,34.50
2018-06-21T12:59:45.837Z,33.70
2018-06-21T13:01:50.363Z,33.30
2018-06-21T13:03:54.800Z,33.60
2018-06-21T13:05:59.400Z,34.00
2018-06-21T13:08:03.818Z,34.00
2018-06-21T13:10:25.268Z,34.30
2018-06-21T13:12:48.328Z,34.60
2018-06-21T13:14:52.754Z,33.90
2018-06-21T13:16:57.350Z,34.90
2018-06-21T13:19:01.731Z,33.70
2018-06-21T13:21:06.881Z,33.10
2018-06-21T13:23:11.396Z,33.40
2018-06-21T13:25:15.863Z,34.20
2018-06-21T13:27:20.361Z,34.50
2018-06-21T13:29:25.080Z,34.50
2018-06-21T13:31:29.526Z,33.70
2018-06-21T13:33:33.979Z,34.20
2018-06-21T13:35:39.490Z,34.50
2018-06-21T13:37:43.968Z,33.90
2018-06-21T13:39:48.466Z,32.80
2018-06-21T13:41:52.959Z,33.00
2018-06-21T13:43:57.421Z,33.40
2018-06-21T13:46:01.881Z,32.90
2018-06-21T13:48:06.351Z,32.60
2018-06-21T13:50:10.770Z,32.60
2018-06-21T13:52:15.249Z,33.30
2018-06-21T13:54:19.651Z,32.80
2018-06-21T13:56:24.129Z,33.70
2018-06-21T13:58:28.591Z,33.00
2018-06-21T14:00:33.168Z,32.90
2018-06-21T14:02:37.726Z,32.30
2018-06-21T14:04:42.124Z,33.10
2018-06-21T14:06:46.577Z,33.60
2018-06-21T14:08:51.047Z,33.00
2018-06-21T14:10:55.455Z,32.60
2018-06-21T14:12:59.904Z,32.20
2018-06-21T14:15:04.379Z,32.50
2018-06-21T14:17:08.853Z,31.60
2018-06-21T14:19:13.230Z,31.80
2018-06-21T14:21:17.667Z,31.60
2018-06-21T14:25:27.466Z,31.50
2018-06-21T14:27:31.980Z,31.80
2018-06-21T14:29:36.492Z,31.50
2018-06-21T14:31:40.963Z,31.60
2018-06-21T14:33:45.613Z,31.20
2018-06-21T14:35:50.021Z,30.70
2018-06-21T14:37:54.488Z,30.40
2018-06-21T14:39:58.931Z,30.60
2018-06-21T14:42:03.375Z,31.10
2018-06-21T14:44:10.732Z,30.80
2018-06-21T14:46:15.129Z,30.80
2018-06-21T14:48:19.661Z,30.90
2018-06-21T14:50:24.044Z,30.70
2018-06-21T14:52:28.506Z,30.70
2018-06-21T14:54:32.946Z,29.90
2018-06-21T14:56:37.329Z,29.90
2018-06-21T14:58:42.490Z,30.10
2018-06-21T15:00:46.987Z,30.30
2018-06-21T15:02:51.482Z,30.50
2018-06-21T15:04:55.928Z,30.70
2018-06-21T15:07:00.419Z,31.40
2018-06-21T15:11:14.684Z,31.00
2018-06-21T15:13:19.116Z,31.00
2018-06-21T15:15:23.538Z,30.60
2018-06-21T15:17:28.633Z,30.70
2018-06-21T15:19:33.029Z,31.00
2018-06-21T15:21:37.506Z,31.50
2018-06-21T15:23:42.166Z,31.20
2018-06-21T15:25:47.191Z,31.30
2018-06-21T15:27:51.678Z,31.50
2018-06-21T15:29:56.085Z,31.60
2018-06-21T15:34:04.793Z,31.20
2018-06-21T15:36:09.285Z,31.60
2018-06-21T15:38:17.651Z,31.80
2018-06-21T15:40:22.190Z,31.20
2018-06-21T15:42:26.611Z,31.50
2018-06-21T15:44:31.032Z,31.20
2018-06-21T15:46:35.578Z,31.60
2018-06-21T15:48:40.183Z,31.80
2018-06-21T15:50:44.691Z,31.70
2018-06-21T15:52:49.700Z,31.60
2018-06-21T15:54:54.216Z,31.20
2018-06-21T15:56:58.671Z,31.10
2018-06-21T15:59:03.165Z,31.30
2018-06-21T16:01:07.819Z,31.60
2018-06-21T16:03:12.417Z,32.00
2018-06-21T16:05:16.850Z,31.80
2018-06-21T16:07:21.370Z,31.50
2018-06-21T16:09:26.079Z,31.50
2018-06-21T16:11:30.499Z,32.10
2018-06-21T16:13:34.951Z,31.20
2018-06-21T16:15:39.374Z,31.10
2018-06-21T16:17:43.988Z,31.40
2018-06-21T16:21:53.856Z,31.60
2018-06-21T16:26:02.746Z,32.10
2018-06-21T16:28:07.510Z,32.30
2018-06-21T16:30:13.042Z,32.70
2018-06-21T16:34:22.501Z,32.40
2018-06-21T16:36:28.191Z,32.40
2018-06-21T16:38:33.222Z,33.50
2018-06-21T16:40:37.776Z,33.00
2018-06-21T16:42:42.387Z,33.90
2018-06-21T16:44:46.963Z,33.30
2018-06-21T16:48:55.775Z,33.20
2018-06-21T16:51:00.580Z,32.90
2018-06-21T16:53:05.235Z,32.60
2018-06-21T16:55:09.917Z,33.60
2018-06-21T16:57:14.508Z,33.20
2018-06-21T16:59:19.584Z,33.20
2018-06-21T17:01:26.055Z,33.20
2018-06-21T17:03:30.812Z,33.50
2018-06-21T17:05:35.351Z,33.70
2018-06-21T17:07:40.008Z,34.00
2018-06-21T17:09:44.489Z,34.40
2018-06-21T17:11:49.533Z,34.60
2018-06-21T17:13:54.256Z,34.70
2018-06-21T17:15:58.727Z,34.70
2018-06-21T17:18:03.501Z,34.50
2018-06-21T17:20:08.614Z,34.20
2018-06-21T17:22:13.868Z,34.80
2018-06-21T17:24:18.930Z,34.90
2018-06-21T17:26:23.662Z,35.20
2018-06-21T17:28:28.948Z,35.40
2018-06-21T17:30:34.059Z,35.40
2018-06-21T17:32:39.025Z,35.60
2018-06-21T17:34:43.540Z,35.90
2018-06-21T17:36:49.790Z,36.20
2018-06-21T17:38:54.274Z,36.30
2018-06-21T17:40:58.856Z,36.50
2018-06-21T17:43:03.967Z,37.60
2018-06-21T17:45:08.487Z,36.90
2018-06-21T17:47:14.384Z,37.30
2018-06-21T17:49:19.899Z,37.10
2018-06-21T17:51:24.537Z,37.10
2018-06-21T17:53:29.035Z,37.10
2018-06-21T17:55:36.186Z,37.20
2018-06-21T17:57:40.888Z,37.50
2018-06-21T17:59:45.799Z,37.80
2018-06-21T18:01:50.485Z,37.90
2018-06-21T18:03:55.344Z,37.90
2018-06-21T18:06:00.188Z,37.80
2018-06-21T18:08:05.185Z,37.80
2018-06-21T18:10:10.328Z,38.00
2018-06-21T18:12:15.063Z,37.80
2018-06-21T18:14:20.518Z,38.20
2018-06-21T18:16:25.192Z,38.00
2018-06-21T18:18:29.631Z,38.10
2018-06-21T18:20:34.087Z,38.60
2018-06-21T18:22:38.627Z,38.30
2018-06-21T18:24:43.821Z,38.40
2018-06-21T18:26:48.317Z,38.50
2018-06-21T18:28:54.025Z,38.40
2018-06-21T18:30:58.609Z,38.30
2018-06-21T18:33:03.722Z,38.50
2018-06-21T18:35:11.135Z,38.70
2018-06-21T18:37:16.894Z,38.70
2018-06-21T18:39:21.400Z,38.40
2018-06-21T18:41:25.815Z,38.40
2018-06-21T18:43:30.242Z,37.90
2018-06-21T18:45:34.706Z,38.70
2018-06-21T18:47:39.430Z,39.10
2018-06-21T18:49:43.890Z,40.00
2018-06-21T18:53:52.572Z,39.50
2018-06-21T18:55:58.170Z,39.80
2018-06-21T18:58:02.652Z,40.20
2018-06-21T19:00:09.203Z,40.40
2018-06-21T19:02:14.361Z,40.30
2018-06-21T19:04:18.907Z,40.10
2018-06-21T19:06:28.650Z,40.00
2018-06-21T19:08:38.580Z,40.00
2018-06-21T19:10:48.559Z,40.00
2018-06-21T19:12:53.995Z,40.30
2018-06-21T19:14:58.508Z,40.10
2018-06-21T19:17:03.007Z,40.70
2018-06-21T19:19:07.617Z,40.90
2018-06-21T19:21:12.361Z,40.80
2018-06-21T19:23:16.994Z,40.70
2018-06-21T19:25:21.952Z,40.70
2018-06-21T19:27:31.368Z,41.10
2018-06-21T19:29:38.441Z,41.40
2018-06-21T19:31:43.049Z,41.40
2018-06-21T19:33:47.930Z,41.70
2018-06-21T19:35:54.063Z,42.20
2018-06-21T19:40:07.649Z,42.60
2018-06-21T19:42:17.958Z,42.40
2018-06-21T19:44:23.360Z,42.20
2018-06-21T19:46:31.118Z,42.80
2018-06-21T19:48:38.587Z,43.30
2018-06-21T19:50:43.075Z,43.20
2018-06-21T19:52:47.807Z,43.60
2018-06-21T19:54:52.262Z,43.40
2018-06-21T19:56:56.894Z,43.60
2018-06-21T19:59:01.348Z,43.70
2018-06-21T20:01:06.100Z,43.90
2018-06-21T20:03:10.829Z,44.00
2018-06-21T20:05:17.957Z,44.00
2018-06-21T20:07:24.050Z,44.10
2018-06-21T20:09:33.107Z,44.40
2018-06-21T20:11:40.141Z,44.20
2018-06-21T20:13:47.702Z,44.40
2018-06-21T20:15:54.208Z,45.40
2018-06-21T20:18:00.162Z,44.60
2018-06-21T20:20:09.917Z,44.60
2018-06-21T20:22:14.475Z,44.40
2018-06-21T20:24:19.578Z,44.30
2018-06-21T20:26:25.051Z,44.70
2018-06-21T20:28:30.583Z,44.50
2018-06-21T20:30:35.024Z,44.80
2018-06-21T20:34:43.813Z,44.70
2018-06-21T20:36:48.327Z,44.80
2018-06-21T20:38:52.736Z,44.50
2018-06-21T20:40:57.227Z,44.70
2018-06-21T20:43:01.677Z,44.90
2018-06-21T20:45:06.500Z,44.70
2018-06-21T20:47:13.057Z,44.80
2018-06-21T20:49:17.561Z,45.00
2018-06-21T20:53:26.206Z,45.50
2018-06-21T20:55:30.954Z,45.50
2018-06-21T20:57:35.434Z,45.40
2018-06-21T20:59:40.016Z,45.40
2018-06-21T21:01:45.079Z,44.90
2018-06-21T21:03:49.607Z,44.90
2018-06-21T21:05:54.235Z,45.00
2018-06-21T21:07:58.659Z,44.70
2018-06-21T21:10:03.559Z,44.70
2018-06-21T21:12:08.029Z,44.60
2018-06-21T21:14:12.475Z,44.90
2018-06-21T21:16:17.278Z,44.50
2018-06-21T21:18:21.926Z,44.10
2018-06-21T21:20:26.392Z,44.40
2018-06-21T21:22:31.049Z,44.50
2018-06-21T21:24:35.544Z,44.50
2018-06-21T21:28:45.734Z,45.10
2018-06-21T21:30:50.480Z,45.00
2018-06-21T21:32:54.887Z,45.10
2018-06-21T21:35:00.460Z,45.00
2018-06-21T21:37:04.988Z,45.00
2018-06-21T21:39:10.702Z,45.00
2018-06-21T21:41:15.132Z,44.90
2018-06-21T21:43:20.694Z,45.50
2018-06-21T21:45:25.105Z,45.80
2018-06-21T21:47:31.286Z,46.00
2018-06-21T21:49:37.669Z,46.00
2018-06-21T21:55:52.650Z,46.30
2018-06-21T21:58:00.538Z,46.10
2018-06-21T22:00:17.905Z,46.50
2018-06-21T22:02:23.509Z,46.50
2018-06-21T22:04:28.343Z,46.80
2018-06-21T22:06:34.600Z,46.90
2018-06-21T22:08:39.021Z,46.80
2018-06-21T22:10:44.507Z,47.10
2018-06-21T22:12:48.980Z,46.80
2018-06-21T22:14:53.530Z,47.00
2018-06-21T22:16:57.891Z,47.00
2018-06-21T22:19:02.583Z,47.00
2018-06-21T22:21:07.002Z,46.80
2018-06-21T22:23:11.490Z,46.80
2018-06-21T22:25:15.949Z,46.80
2018-06-21T22:27:21.301Z,46.80
2018-06-21T22:29:25.723Z,47.20
2018-06-21T22:31:30.205Z,47.10
2018-06-21T22:33:34.628Z,47.80
2018-06-21T22:35:39.099Z,47.30
2018-06-21T22:37:43.540Z,47.50
2018-06-21T22:39:47.967Z,47.60
2018-06-21T22:41:52.458Z,47.50
2018-06-21T22:43:56.881Z,47.60
2018-06-21T22:46:01.520Z,47.50
2018-06-21T22:48:05.960Z,47.60
2018-06-21T22:50:10.508Z,47.60
2018-06-21T22:52:15.017Z,47.50
2018-06-21T22:54:19.554Z,47.70
2018-06-21T22:56:24.126Z,47.80
2018-06-21T22:58:28.577Z,47.90
2018-06-21T23:00:32.975Z,47.90
2018-06-21T23:02:37.459Z,48.20
2018-06-21T23:04:41.872Z,48.30
2018-06-21T23:10:54.590Z,48.30
2018-06-21T23:12:59.021Z,49.30
2018-06-21T23:15:03.480Z,48.70
2018-06-21T23:17:07.939Z,49.00
2018-06-21T23:19:26.156Z,49.00
2018-06-21T23:21:31.011Z,49.10
2018-06-21T23:23:38.640Z,49.10
2018-06-21T23:25:43.841Z,49.10
2018-06-21T23:27:48.365Z,49.40
2018-06-21T23:29:57.005Z,49.50
2018-06-21T23:32:03.267Z,49.40
2018-06-21T23:34:07.700Z,49.60
2018-06-21T23:36:12.153Z,49.50
2018-06-21T23:38:16.623Z,50.00
2018-06-21T23:42:26.354Z,49.70
2018-06-21T23:44:30.790Z,49.70
2018-06-21T23:46:35.392Z,49.80
2018-06-21T23:48:39.815Z,49.80
2018-06-21T23:50:44.740Z,49.80
2018-06-21T23:52:49.159Z,49.80
2018-06-21T23:54:53.552Z,50.00
2018-06-21T23:56:58.048Z,50.20
2018-06-21T23:59:02.736Z,50.30
